Time;durP1;ratioP1;P1;durP2;ratioP2;P2;SDS_P1;SDS_P2;PMS_P1;PMS_P2;Temp;Humidity;BMP_temperature;BMP_pressure;BME280_temperature;BME280_humidity;BME280_pressure;Samples;Min_cycle;Max_cycle;Signal;HPM_P1;HPM_P2
2023/08/09 00:06:53;;;;;;;4.60;3.80;;;;;;;19.43;78.48;99883.36;670011;1263;22924;-75
2023/08/09 00:21:56;;;;;;;5.90;3.50;;;;;;;19.61;77.93;99891.75;669163;1262;22967;-75
2023/08/09 00:37:19;;;;;;;6.70;4.10;;;;;;;19.67;78.12;99884.67;669049;1262;22575;-75
2023/08/09 00:52:26;;;;;;;8.10;4.20;;;;;;;19.41;79.46;99886.30;669410;1262;23381;-75
2023/08/09 01:08:05;;;;;;;7.30;4.30;;;;;;;19.24;79.89;99889.36;669502;1262;27099;-76
2023/08/09 01:23:35;;;;;;;6.20;3.30;;;;;;;18.98;82.21;99875.04;674275;1262;22571;-77
2023/08/09 01:39:06;;;;;;;7.00;4.40;;;;;;;18.93;82.74;99901.02;670252;1263;138056;-76
2023/08/09 01:54:12;;;;;;;4.90;3.80;;;;;;;19.01;81.88;99901.96;670121;1262;22565;-76
2023/08/09 02:09:16;;;;;;;7.30;4.70;;;;;;;18.77;82.55;99903.45;669537;1263;138346;-76
2023/08/09 02:24:21;;;;;;;13.60;5.40;;;;;;;18.35;84.08;99910.38;669244;1263;138693;-76
2023/08/09 02:39:25;;;;;;;8.20;4.80;;;;;;;18.06;85.43;99910.77;669754;1262;22564;-76
2023/08/09 02:54:29;;;;;;;10.50;4.30;;;;;;;18.04;85.54;99917.62;669995;1262;25456;-77
2023/08/09 03:09:34;;;;;;;8.50;5.10;;;;;;;18.13;84.75;99929.59;670906;1260;23259;-76
2023/08/09 03:24:38;;;;;;;11.00;6.50;;;;;;;17.02;89.62;99938.51;670967;1265;23497;-75
2023/08/09 03:39:43;;;;;;;11.20;6.70;;;;;;;17.37;88.32;99953.43;670891;1275;140160;-75
2023/08/09 03:54:48;;;;;;;7.90;6.10;;;;;;;17.66;87.00;99969.02;669957;1265;139401;-76
2023/08/09 04:09:51;;;;;;;11.30;7.20;;;;;;;17.88;87.59;99988.90;669191;1259;138777;-75
2023/08/09 04:24:55;;;;;;;16.40;9.90;;;;;;;18.23;87.33;99998.98;669140;1267;138886;-75
2023/08/09 04:39:58;;;;;;;15.10;9.50;;;;;;;18.26;88.32;100004.19;669065;1263;139011;-75
2023/08/09 04:55:03;;;;;;;14.80;9.50;;;;;;;18.51;86.89;100012.95;669108;1267;139420;-76
2023/08/09 05:10:09;;;;;;;10.90;6.90;;;;;;;18.70;85.05;100021.70;670107;1263;139029;-76
2023/08/09 05:25:12;;;;;;;7.70;6.00;;;;;;;19.20;82.59;100031.15;669937;1263;139150;-76
2023/08/09 05:40:16;;;;;;;11.60;6.50;;;;;;;20.10;77.74;100040.88;669577;1263;139111;-77
2023/08/09 05:55:20;;;;;;;10.50;6.10;;;;;;;21.01;74.83;100047.89;669549;1262;139373;-76
2023/08/09 06:10:25;;;;;;;9.00;4.80;;;;;;;22.32;72.52;100056.45;669245;1264;139868;-76
2023/08/09 06:25:47;;;;;;;6.10;3.80;;;;;;;23.43;68.23;100070.21;669087;1271;138826;-77
2023/08/09 06:40:51;;;;;;;8.50;2.70;;;;;;;25.05;63.38;100075.60;670998;1259;138796;-76
2023/08/09 06:55:54;;;;;;;5.40;2.40;;;;;;;26.17;59.14;100081.91;669605;1263;138483;-75
2023/08/09 07:10:57;;;;;;;5.40;2.10;;;;;;;27.47;56.17;100083.81;669644;1262;138584;-76
2023/08/09 07:26:00;;;;;;;5.20;1.80;;;;;;;25.88;55.38;100093.45;669375;1257;138102;-76
2023/08/09 07:41:04;;;;;;;5.60;2.00;;;;;;;26.35;55.62;100105.05;669127;1257;138407;-76
2023/08/09 07:56:08;;;;;;;4.80;1.60;;;;;;;26.22;54.18;100105.95;669090;1264;138568;-76
2023/08/09 08:11:12;;;;;;;3.80;1.60;;;;;;;28.14;51.14;100102.94;669041;1263;138127;-78
2023/08/09 08:26:15;;;;;;;6.80;2.00;;;;;;;28.37;49.12;100107.95;669695;1261;138663;-77
2023/08/09 08:41:19;;;;;;;5.80;1.80;;;;;;;26.83;50.14;100106.36;668222;1262;138149;-77
2023/08/09 08:56:23;;;;;;;3.40;1.30;;;;;;;26.44;50.85;100106.17;667365;1261;138470;-77
2023/08/09 09:11:26;;;;;;;5.70;1.60;;;;;;;25.72;50.65;100115.60;668144;1264;139078;-80
2023/08/09 09:26:30;;;;;;;4.40;1.10;;;;;;;26.20;51.54;100129.73;668653;1257;138034;-75
2023/08/09 09:41:34;;;;;;;4.80;1.50;;;;;;;25.83;51.32;100128.02;668722;1262;138434;-76
2023/08/09 09:56:37;;;;;;;6.90;1.70;;;;;;;24.77;53.27;100141.30;668627;1264;140782;-77
2023/08/09 10:11:44;;;;;;;7.20;1.50;;;;;;;23.61;55.29;100147.95;669054;1264;138423;-76
2023/08/09 10:26:53;;;;;;;4.60;1.70;;;;;;;22.89;57.90;100149.58;668694;1264;138610;-76
2023/08/09 10:42:03;;;;;;;19.10;12.00;;;;;;;22.50;58.68;100149.92;669288;1263;138487;-76
2023/08/09 10:57:09;;;;;;;3.10;1.70;;;;;;;22.49;59.76;100159.30;668450;1264;139539;-77
2023/08/09 11:12:14;;;;;;;4.30;2.00;;;;;;;22.17;62.08;100164.39;670326;1264;138534;-77
2023/08/09 11:27:18;;;;;;;6.30;2.40;;;;;;;21.26;66.51;100177.41;669808;1263;138753;-76
2023/08/09 11:42:22;;;;;;;3.00;2.20;;;;;;;22.00;66.42;100174.48;670501;1262;141090;-77
2023/08/09 11:57:26;;;;;;;4.60;2.90;;;;;;;24.66;62.40;100172.89;672509;1261;138950;-76
2023/08/09 12:12:37;;;;;;;18.80;9.00;;;;;;;27.06;57.17;100167.52;669105;1259;138524;-75
2023/08/09 12:27:41;;;;;;;3.80;2.30;;;;;;;27.03;54.33;100165.77;669095;1264;22850;-77
2023/08/09 12:43:04;;;;;;;2.30;1.30;;;;;;;26.80;51.67;100162.14;668701;1260;22511;-76
2023/08/09 12:58:12;;;;;;;6.30;2.20;;;;;;;26.90;49.99;100174.84;671570;1263;23222;-75
2023/08/09 13:13:15;;;;;;;3.10;1.80;;;;;;;25.86;50.59;100193.26;668450;1264;137817;-75
2023/08/09 13:28:19;;;;;;;4.80;2.20;;;;;;;25.41;52.68;100202.64;668084;1263;138614;-77
2023/08/09 13:43:23;;;;;;;3.60;1.30;;;;;;;23.99;58.16;100216.48;668427;1259;23024;-76
2023/08/09 13:58:29;;;;;;;4.70;2.40;;;;;;;23.40;58.66;100217.48;668391;1267;22564;-77
2023/08/09 14:13:32;;;;;;;1.50;1.30;;;;;;;23.65;57.39;100216.06;668179;1259;24877;-81
2023/08/09 14:28:37;;;;;;;6.40;3.60;;;;;;;24.26;55.21;100216.00;669481;1264;22682;-76
2023/08/09 14:43:41;;;;;;;2.50;1.50;;;;;;;25.20;52.78;100218.33;668785;1262;22572;-77
2023/08/09 14:58:46;;;;;;;2.70;1.60;;;;;;;24.88;54.07;100219.17;668121;1259;24680;-76
2023/08/09 15:13:50;;;;;;;1.70;1.40;;;;;;;24.88;56.30;100219.45;668647;1261;138404;-77
2023/08/09 15:28:54;;;;;;;5.70;2.90;;;;;;;25.25;56.61;100220.80;668244;1264;26153;-77
2023/08/09 15:43:58;;;;;;;8.10;4.70;;;;;;;25.10;56.61;100230.92;668715;1264;22664;-77
2023/08/09 15:59:02;;;;;;;6.50;2.60;;;;;;;24.99;56.79;100234.59;669326;1264;208929;-76
2023/08/09 16:14:09;;;;;;;4.50;3.00;;;;;;;24.57;56.84;100249.95;668453;1264;22930;-75
2023/08/09 16:29:15;;;;;;;4.50;2.00;;;;;;;23.95;56.50;100258.23;668143;1264;23179;-79
2023/08/09 16:44:33;;;;;;;4.20;2.20;;;;;;;23.94;56.76;100270.84;668449;1269;23624;-76
2023/08/09 16:59:37;;;;;;;2.30;1.50;;;;;;;23.79;56.67;100278.77;671721;1267;22712;-77
2023/08/09 17:14:41;;;;;;;2.00;1.60;;;;;;;23.38;57.49;100291.72;668235;1261;24577;-78
2023/08/09 17:29:44;;;;;;;3.90;2.00;;;;;;;23.31;58.47;100299.91;670437;1261;24026;-76
2023/08/09 17:44:48;;;;;;;5.60;3.30;;;;;;;22.98;60.86;100314.95;669694;1263;22552;-77
2023/08/09 17:59:51;;;;;;;6.10;3.60;;;;;;;22.64;64.77;100328.41;667993;1264;24230;-77
2023/08/09 18:14:55;;;;;;;7.60;3.70;;;;;;;22.18;66.92;100336.26;668064;1264;24380;-78
2023/08/09 18:29:59;;;;;;;8.00;4.40;;;;;;;22.12;67.10;100354.52;668682;1264;22580;-77
2023/08/09 18:45:26;;;;;;;6.60;4.40;;;;;;;21.83;68.90;100375.00;667863;1262;23406;-77
2023/08/09 19:00:31;;;;;;;9.10;5.10;;;;;;;21.54;69.81;100390.40;670737;1263;139183;-77
2023/08/09 19:15:55;;;;;;;11.10;5.90;;;;;;;21.27;71.08;100399.42;673265;1262;23297;-76
2023/08/09 19:31:02;;;;;;;8.70;6.40;;;;;;;21.06;72.34;100411.48;670576;1263;25242;-77
2023/08/09 19:46:06;;;;;;;11.30;6.80;;;;;;;20.68;73.99;100423.30;670411;1264;22580;-78
2023/08/09 20:01:10;;;;;;;9.00;6.50;;;;;;;20.79;73.79;100431.30;669677;1262;22671;-78
2023/08/09 20:16:14;;;;;;;13.60;7.50;;;;;;;20.65;74.20;100446.18;671996;1262;22765;-77
2023/08/09 20:31:18;;;;;;;12.00;8.10;;;;;;;20.37;74.63;100457.60;673884;1263;140046;-79
2023/08/09 20:46:21;;;;;;;18.50;10.60;;;;;;;20.21;75.09;100475.55;674413;1266;22614;-78
2023/08/09 21:01:25;;;;;;;15.60;9.10;;;;;;;20.18;76.59;100487.20;674137;1262;23204;-78
2023/08/09 21:16:28;;;;;;;13.10;9.40;;;;;;;20.32;75.80;100490.71;673817;1269;22906;-78
2023/08/09 21:31:32;;;;;;;12.50;9.50;;;;;;;20.31;75.35;100505.73;673215;1262;22867;-78
2023/08/09 21:46:35;;;;;;;15.40;10.30;;;;;;;19.96;76.95;100521.11;672686;1262;22746;-78
2023/08/09 22:01:39;;;;;;;14.00;10.30;;;;;;;19.65;77.94;100525.02;669948;1262;23447;-80
2023/08/09 22:16:42;;;;;;;14.30;9.40;;;;;;;19.69;76.89;100524.92;673593;1269;22973;-78
2023/08/09 22:31:46;;;;;;;18.30;11.00;;;;;;;19.68;75.80;100526.65;672518;1262;22590;-78
2023/08/09 22:46:49;;;;;;;16.50;9.70;;;;;;;19.38;76.07;100544.29;673420;1264;25753;-79
2023/08/09 23:01:53;;;;;;;17.90;9.90;;;;;;;19.21;75.81;100550.71;670628;1262;22574;-77
2023/08/09 23:16:56;;;;;;;24.30;13.60;;;;;;;19.05;76.97;100557.83;671719;1262;27067;-77
2023/08/09 23:31:59;;;;;;;22.00;12.20;;;;;;;18.92;77.05;100563.23;670491;1264;22570;-76
2023/08/09 23:47:03;;;;;;;16.20;11.30;;;;;;;18.73;77.71;100570.61;671881;1263;22676;-78
